Time;durP1;ratioP1;P1;durP2;ratioP2;P2;SDS_P1;SDS_P2;PMS_P1;PMS_P2;Temp;Humidity;BMP_temperature;BMP_pressure;BME280_temperature;BME280_humidity;BME280_pressure;Samples;Min_cycle;Max_cycle;Signal;HPM_P1;HPM_P2
2021/12/31 00:03:44;;;;;;;2.30;1.77;;;15.40;49.60;;;;;;10351124;28;20226;-71
2021/12/31 00:08:48;;;;;;;1.30;1.30;;;15.30;49.70;;;;;;10348950;28;20234;-71
2021/12/31 00:13:52;;;;;;;1.30;1.20;;;15.20;49.80;;;;;;10349314;28;20227;-71
2021/12/31 00:18:55;;;;;;;1.50;1.40;;;15.10;49.40;;;;;;10348635;28;20224;-71
2021/12/31 00:23:59;;;;;;;1.30;1.30;;;15.10;49.60;;;;;;10348015;28;20694;-70
2021/12/31 00:29:03;;;;;;;1.20;1.10;;;15.00;49.80;;;;;;10349495;28;20226;-71
2021/12/31 00:34:06;;;;;;;1.53;1.10;;;14.90;49.70;;;;;;10344494;28;20233;-71
2021/12/31 00:39:10;;;;;;;1.40;1.10;;;14.80;50.10;;;;;;10353696;28;20232;-70
2021/12/31 00:44:14;;;;;;;1.20;1.20;;;14.70;50.60;;;;;;10349436;28;20231;-71
2021/12/31 00:49:17;;;;;;;1.20;1.10;;;14.70;50.90;;;;;;10352748;28;20218;-71
2021/12/31 00:54:20;;;;;;;1.00;1.00;;;14.70;51.00;;;;;;10352774;28;20226;-71
2021/12/31 00:59:25;;;;;;;1.27;1.00;;;14.70;51.00;;;;;;10347049;28;20234;-71
2021/12/31 01:04:29;;;;;;;0.97;0.97;;;14.70;50.80;;;;;;10346568;28;20711;-71
2021/12/31 01:09:32;;;;;;;1.07;1.00;;;14.70;51.00;;;;;;10348818;28;20238;-71
2021/12/31 01:14:40;;;;;;;0.90;0.90;;;14.70;50.90;;;;;;10350375;28;20234;-71
2021/12/31 01:19:46;;;;;;;1.23;1.10;;;14.80;50.50;;;;;;10351550;28;20226;-70
2021/12/31 01:24:50;;;;;;;1.00;1.00;;;14.80;50.50;;;;;;10351350;28;20498;-71
2021/12/31 01:29:54;;;;;;;1.17;1.00;;;14.80;50.20;;;;;;10348889;28;20222;-71
2021/12/31 01:34:57;;;;;;;1.20;1.10;;;14.80;50.10;;;;;;10351591;28;20753;-70
2021/12/31 01:40:01;;;;;;;1.97;1.03;;;14.80;50.10;;;;;;10349748;28;20222;-70
2021/12/31 01:45:14;;;;;;;1.40;0.80;;;14.70;50.00;;;;;;10349479;28;20804;-71
2021/12/31 01:50:17;;;;;;;1.10;1.00;;;14.70;50.00;;;;;;10345976;28;20226;-70
2021/12/31 01:55:22;;;;;;;1.10;1.00;;;14.70;50.10;;;;;;10348121;28;20228;-70
2021/12/31 02:00:27;;;;;;;1.47;1.00;;;14.70;50.00;;;;;;10349081;28;20233;-71
2021/12/31 02:05:30;;;;;;;0.70;0.70;;;14.70;50.00;;;;;;10348798;28;20234;-71
2021/12/31 02:10:33;;;;;;;1.00;1.00;;;14.70;50.00;;;;;;10347994;28;20238;-70
2021/12/31 02:15:38;;;;;;;1.00;0.90;;;14.70;50.00;;;;;;10348888;28;20230;-70
2021/12/31 02:20:47;;;;;;;0.90;0.90;;;14.70;50.00;;;;;;10347323;28;20230;-72
2021/12/31 02:25:50;;;;;;;0.80;0.80;;;14.70;50.00;;;;;;10355258;28;20226;-71
2021/12/31 02:31:00;;;;;;;2.47;0.90;;;14.70;50.00;;;;;;10355148;28;20241;-72
2021/12/31 02:36:07;;;;;;;0.70;0.70;;;14.60;49.70;;;;;;10353010;28;20235;-72
2021/12/31 02:41:10;;;;;;;0.80;0.80;;;14.50;49.80;;;;;;10350570;28;20229;-72
2021/12/31 02:46:13;;;;;;;0.70;0.70;;;14.50;49.90;;;;;;10354487;28;20226;-72
2021/12/31 02:51:18;;;;;;;0.70;0.70;;;14.50;50.20;;;;;;10352949;28;20708;-72
2021/12/31 02:56:22;;;;;;;1.80;0.70;;;14.60;50.10;;;;;;10355115;28;20222;-72
2021/12/31 03:01:25;;;;;;;0.73;0.73;;;14.60;49.90;;;;;;10353742;28;20226;-72
2021/12/31 03:06:31;;;;;;;0.90;0.90;;;14.70;50.00;;;;;;10355583;28;20234;-72
2021/12/31 03:11:34;;;;;;;0.80;0.80;;;14.70;49.70;;;;;;10351961;28;20234;-72
2021/12/31 03:16:38;;;;;;;0.70;0.60;;;14.80;49.80;;;;;;10354593;28;20276;-72
2021/12/31 03:21:43;;;;;;;1.37;0.50;;;14.80;49.50;;;;;;10354263;28;20230;-72
2021/12/31 03:26:46;;;;;;;0.60;0.60;;;14.70;49.20;;;;;;10351165;28;20718;-72
2021/12/31 03:31:49;;;;;;;1.10;1.10;;;14.70;49.40;;;;;;10354792;28;20241;-72
2021/12/31 03:36:55;;;;;;;0.97;0.97;;;14.80;49.60;;;;;;10349336;28;20230;-72
2021/12/31 03:41:58;;;;;;;1.13;0.77;;;14.70;49.10;;;;;;10348999;28;20227;-72
2021/12/31 03:47:01;;;;;;;0.60;0.60;;;14.80;49.40;;;;;;10350907;28;20616;-72
2021/12/31 03:52:06;;;;;;;0.70;0.70;;;14.80;49.30;;;;;;10345878;28;20230;-72
2021/12/31 03:57:09;;;;;;;0.60;0.60;;;14.80;49.00;;;;;;10351425;28;20238;-72
2021/12/31 04:02:13;;;;;;;1.23;0.63;;;14.80;49.90;;;;;;10350863;28;20619;-72
2021/12/31 04:07:17;;;;;;;0.70;0.70;;;14.90;49.10;;;;;;10355630;28;20229;-72
2021/12/31 04:12:21;;;;;;;1.63;0.60;;;14.90;48.80;;;;;;10351939;28;20568;-72
2021/12/31 04:17:24;;;;;;;0.80;0.80;;;14.90;49.10;;;;;;10350386;28;20235;-72
2021/12/31 04:22:30;;;;;;;1.33;0.80;;;14.90;49.00;;;;;;10352469;28;20232;-72
2021/12/31 04:27:33;;;;;;;0.80;0.80;;;14.90;48.50;;;;;;10355301;28;20222;-72
2021/12/31 04:32:36;;;;;;;0.70;0.70;;;14.90;48.70;;;;;;10350512;28;20345;-72
2021/12/31 04:37:42;;;;;;;0.80;0.80;;;14.80;48.50;;;;;;10352803;28;20797;-72
2021/12/31 04:42:46;;;;;;;1.13;1.00;;;14.80;48.00;;;;;;10346783;28;20236;-72
2021/12/31 04:47:49;;;;;;;0.80;0.80;;;14.80;48.40;;;;;;10352994;28;20230;-72
2021/12/31 04:52:54;;;;;;;0.87;0.83;;;14.70;48.30;;;;;;10348866;28;20718;-72
2021/12/31 04:57:57;;;;;;;0.90;0.90;;;14.70;47.90;;;;;;10351394;28;20240;-72
2021/12/31 05:03:06;;;;;;;1.00;1.00;;;14.70;48.80;;;;;;10351412;28;20231;-72
2021/12/31 05:08:11;;;;;;;0.93;0.70;;;14.70;47.40;;;;;;10348489;28;20228;-72
2021/12/31 05:13:15;;;;;;;0.90;0.90;;;14.70;47.70;;;;;;10343167;28;20449;-72
2021/12/31 05:18:18;;;;;;;0.90;0.90;;;14.60;48.00;;;;;;10351969;28;20749;-72
2021/12/31 05:23:28;;;;;;;0.90;0.80;;;14.60;48.10;;;;;;10346652;28;20723;-72
2021/12/31 05:28:36;;;;;;;1.00;0.90;;;14.50;47.90;;;;;;10348584;28;20289;-72
2021/12/31 05:33:39;;;;;;;0.90;0.90;;;14.50;47.60;;;;;;10350901;28;20234;-72
2021/12/31 05:38:44;;;;;;;0.80;0.80;;;14.40;47.30;;;;;;10348079;28;20257;-71
2021/12/31 05:43:47;;;;;;;0.93;0.93;;;14.30;47.00;;;;;;10347152;28;20322;-72
2021/12/31 05:48:50;;;;;;;0.80;0.77;;;14.20;47.20;;;;;;10346669;28;20249;-72
2021/12/31 05:53:55;;;;;;;0.97;0.97;;;14.20;47.00;;;;;;10346715;28;20727;-72
2021/12/31 05:58:58;;;;;;;1.10;1.10;;;14.10;46.60;;;;;;10346871;28;20235;-72
2021/12/31 06:04:01;;;;;;;0.80;0.80;;;14.00;46.90;;;;;;10351418;28;20753;-72
2021/12/31 06:09:07;;;;;;;1.70;0.90;;;13.90;46.90;;;;;;10356406;28;20682;-72
2021/12/31 06:14:12;;;;;;;1.70;0.90;;;13.70;46.20;;;;;;10352521;28;20226;-72
2021/12/31 06:19:15;;;;;;;0.73;0.73;;;13.70;46.70;;;;;;10356092;28;20271;-72
2021/12/31 06:24:20;;;;;;;0.90;0.90;;;13.60;46.60;;;;;;10357207;28;20242;-72
2021/12/31 06:29:24;;;;;;;1.63;1.30;;;13.50;46.10;;;;;;10355330;28;20664;-72
2021/12/31 06:34:27;;;;;;;0.90;0.90;;;13.40;46.40;;;;;;10350118;28;20234;-72
2021/12/31 06:39:32;;;;;;;1.10;1.10;;;13.40;46.60;;;;;;10354260;28;20237;-72
2021/12/31 06:44:35;;;;;;;1.40;1.20;;;13.30;46.00;;;;;;10354519;28;20387;-72
2021/12/31 06:49:38;;;;;;;3.00;2.70;;;13.20;46.50;;;;;;10358199;28;20234;-72
2021/12/31 06:54:43;;;;;;;2.13;2.03;;;13.10;46.50;;;;;;10354814;28;20231;-72
2021/12/31 06:59:46;;;;;;;2.30;2.10;;;13.00;46.10;;;;;;10347714;28;20226;-72
2021/12/31 07:04:49;;;;;;;1.80;1.70;;;13.00;46.30;;;;;;10349655;28;20609;-72
2021/12/31 07:09:54;;;;;;;2.43;2.23;;;12.90;46.10;;;;;;10352617;28;20241;-72
2021/12/31 07:14:57;;;;;;;2.40;2.30;;;12.80;46.10;;;;;;10351182;28;20227;-72
2021/12/31 07:20:00;;;;;;;2.10;2.00;;;12.70;46.20;;;;;;10352861;28;20231;-72
2021/12/31 07:25:05;;;;;;;1.90;1.80;;;12.70;46.30;;;;;;10351296;28;20556;-72
2021/12/31 07:30:10;;;;;;;2.97;2.77;;;12.60;45.90;;;;;;10353265;28;20230;-72
2021/12/31 07:35:13;;;;;;;2.30;2.20;;;12.60;46.00;;;;;;10356113;28;20686;-72
2021/12/31 07:40:25;;;;;;;3.10;2.90;;;12.60;46.10;;;;;;10355206;28;20237;-71
2021/12/31 07:45:28;;;;;;;5.13;3.80;;;12.50;45.90;;;;;;10349639;28;20714;-72
2021/12/31 07:50:32;;;;;;;4.13;3.73;;;12.40;46.20;;;;;;10355845;28;20226;-71
2021/12/31 07:55:37;;;;;;;4.40;4.03;;;12.40;46.40;;;;;;10347814;28;20229;-71
2021/12/31 08:00:40;;;;;;;12.23;11.07;;;12.30;46.30;;;;;;10346386;28;20231;-71
2021/12/31 08:05:43;;;;;;;10.77;9.87;;;12.30;46.50;;;;;;10355995;28;20226;-71
2021/12/31 08:10:49;;;;;;;10.43;9.63;;;12.20;46.60;;;;;;10347883;28;20451;-72
2021/12/31 08:15:58;;;;;;;6.60;6.10;;;12.20;46.70;;;;;;10352805;28;20234;-72
2021/12/31 08:21:01;;;;;;;5.87;5.47;;;12.20;47.00;;;;;;10353180;28;20643;-71
2021/12/31 08:26:06;;;;;;;3.70;3.40;;;12.20;47.00;;;;;;10350994;28;20226;-71
2021/12/31 08:31:09;;;;;;;4.17;3.87;;;12.20;47.40;;;;;;10350801;28;20226;-71
2021/12/31 08:36:12;;;;;;;4.50;4.10;;;12.30;47.80;;;;;;10353113;28;20237;-71
2021/12/31 08:41:17;;;;;;;3.50;3.30;;;12.30;47.90;;;;;;10347993;28;20226;-71
2021/12/31 08:46:40;;;;;;;3.40;3.20;;;12.40;48.20;;;;;;10352752;28;20230;-71
2021/12/31 08:51:44;;;;;;;3.50;3.30;;;12.50;48.60;;;;;;10349768;28;20652;-71
2021/12/31 08:56:48;;;;;;;3.33;3.10;;;12.60;48.90;;;;;;10350807;28;20234;-71
2021/12/31 09:01:57;;;;;;;3.20;2.90;;;12.80;49.50;;;;;;10351376;28;20221;-71
2021/12/31 09:07:00;;;;;;;3.93;3.63;;;13.00;49.80;;;;;;10348488;28;20234;-72
2021/12/31 09:12:06;;;;;;;4.63;3.50;;;13.10;50.20;;;;;;10346525;28;20230;-72
2021/12/31 09:17:09;;;;;;;4.50;3.40;;;13.30;51.10;;;;;;10345098;28;20227;-72
2021/12/31 09:22:12;;;;;;;3.10;2.90;;;13.50;51.00;;;;;;10342902;28;20245;-72
2021/12/31 09:27:17;;;;;;;3.40;3.20;;;13.70;50.90;;;;;;10344689;28;20688;-71
2021/12/31 09:32:22;;;;;;;3.03;2.83;;;13.90;51.40;;;;;;10349662;28;20241;-72
2021/12/31 09:37:25;;;;;;;3.30;3.10;;;14.00;51.70;;;;;;10355277;28;20232;-72
2021/12/31 09:42:30;;;;;;;2.90;2.70;;;14.20;51.70;;;;;;10352711;28;20228;-72
2021/12/31 09:47:33;;;;;;;3.70;2.87;;;14.30;51.90;;;;;;10359462;28;20626;-71
2021/12/31 09:52:37;;;;;;;2.20;2.10;;;14.60;51.90;;;;;;10357857;28;20240;-71
2021/12/31 09:57:45;;;;;;;2.60;2.40;;;14.80;51.90;;;;;;10356206;28;20317;-71
2021/12/31 10:03:09;;;;;;;1.90;1.80;;;15.00;51.40;;;;;;10353516;28;20230;-71
2021/12/31 10:08:18;;;;;;;2.00;1.80;;;15.20;50.90;;;;;;10356829;28;20248;-72
2021/12/31 10:13:25;;;;;;;1.83;1.73;;;15.40;51.10;;;;;;10356992;28;20234;-72
2021/12/31 10:18:36;;;;;;;2.13;2.03;;;15.70;50.10;;;;;;10353529;28;20245;-72
2021/12/31 10:23:40;;;;;;;2.33;2.13;;;15.80;49.80;;;;;;10353576;28;20226;-72
2021/12/31 10:28:57;;;;;;;2.10;2.00;;;16.00;50.30;;;;;;10359540;28;20261;-72
2021/12/31 10:34:03;;;;;;;1.67;1.57;;;16.10;48.80;;;;;;10351478;28;20233;-71
2021/12/31 10:39:21;;;;;;;1.90;1.80;;;16.30;49.60;;;;;;10355511;28;20302;-72
2021/12/31 10:44:40;;;;;;;2.23;2.03;;;16.30;48.40;;;;;;10357329;28;20234;-71
2021/12/31 10:50:08;;;;;;;2.70;2.40;;;16.40;48.40;;;;;;10352647;28;20226;-72
2021/12/31 10:55:19;;;;;;;2.17;2.07;;;16.40;48.20;;;;;;10359020;28;20222;-72
2021/12/31 11:00:25;;;;;;;2.43;2.23;;;16.40;48.20;;;;;;10349216;28;20238;-72
2021/12/31 11:05:29;;;;;;;2.13;2.03;;;16.40;47.90;;;;;;10352998;28;20237;-72
2021/12/31 11:10:36;;;;;;;2.30;2.20;;;16.30;48.20;;;;;;10357566;28;20235;-71
2021/12/31 11:15:42;;;;;;;2.50;2.30;;;16.30;47.90;;;;;;10353419;28;20314;-72
2021/12/31 11:20:47;;;;;;;2.77;2.57;;;16.40;48.00;;;;;;10354069;28;20236;-72
2021/12/31 11:25:52;;;;;;;2.97;2.70;;;16.40;47.70;;;;;;10353589;28;20240;-72
2021/12/31 11:30:57;;;;;;;2.63;2.43;;;16.40;47.90;;;;;;10349366;28;20230;-71
2021/12/31 11:36:05;;;;;;;1.97;1.87;;;16.50;47.50;;;;;;10347203;28;20231;-72
2021/12/31 11:41:11;;;;;;;2.93;1.90;;;16.50;47.60;;;;;;10357678;28;20214;-71
2021/12/31 11:46:47;;;;;;;2.10;2.00;;;16.60;47.50;;;;;;10350131;28;20237;-71
2021/12/31 11:52:08;;;;;;;2.47;2.27;;;16.60;47.40;;;;;;10349012;28;20322;-72
2021/12/31 11:57:19;;;;;;;2.00;1.90;;;16.60;47.00;;;;;;10346982;28;20702;-71
2021/12/31 12:02:35;;;;;;;2.00;1.90;;;16.60;47.20;;;;;;10351076;28;20238;-72
2021/12/31 12:07:42;;;;;;;2.17;2.07;;;16.60;46.60;;;;;;10351031;28;20348;-71
2021/12/31 12:12:49;;;;;;;1.90;1.80;;;16.70;47.80;;;;;;10348935;28;20226;-72
2021/12/31 12:17:54;;;;;;;2.67;2.27;;;16.70;48.10;;;;;;10350993;28;20261;-72
2021/12/31 12:22:57;;;;;;;2.00;1.90;;;16.80;47.70;;;;;;10349865;28;20234;-72
2021/12/31 12:28:07;;;;;;;3.77;3.00;;;16.90;47.90;;;;;;10350616;28;20228;-72
2021/12/31 12:33:19;;;;;;;1.93;1.83;;;16.90;47.50;;;;;;10352655;28;20222;-71
2021/12/31 12:38:25;;;;;;;2.17;2.07;;;17.00;47.20;;;;;;10351278;28;20595;-72
2021/12/31 12:43:30;;;;;;;2.20;2.10;;;17.10;47.10;;;;;;10347509;28;20230;-72
2021/12/31 12:48:36;;;;;;;2.10;2.00;;;17.10;47.50;;;;;;10350312;28;20821;-72
2021/12/31 12:53:41;;;;;;;1.90;1.80;;;17.20;46.30;;;;;;10345900;28;20231;-72
2021/12/31 12:58:49;;;;;;;2.00;1.70;;;17.20;46.30;;;;;;10349019;28;20607;-71
2021/12/31 13:03:55;;;;;;;1.80;1.70;;;17.20;46.30;;;;;;10350557;28;20675;-71
2021/12/31 13:09:10;;;;;;;2.23;1.93;;;17.20;46.30;;;;;;10349992;28;20237;-71
2021/12/31 13:14:15;;;;;;;2.70;2.50;;;17.20;46.30;;;;;;10345168;28;20341;-72
2021/12/31 13:19:28;;;;;;;3.37;3.17;;;17.20;46.30;;;;;;10352569;28;20234;-71
2021/12/31 13:24:31;;;;;;;2.00;1.90;;;17.20;46.20;;;;;;10347095;28;20230;-72
2021/12/31 13:29:36;;;;;;;1.80;1.70;;;17.20;46.30;;;;;;10348404;28;20241;-72
2021/12/31 13:34:42;;;;;;;1.47;1.37;;;17.20;46.30;;;;;;10348400;28;20230;-72
2021/12/31 13:39:48;;;;;;;1.60;1.50;;;17.20;46.30;;;;;;10350260;28;20785;-72
2021/12/31 13:44:51;;;;;;;1.60;1.50;;;17.20;46.30;;;;;;10346613;28;20236;-72
2021/12/31 13:50:02;;;;;;;1.57;1.47;;;17.20;46.30;;;;;;10351430;28;20230;-72
2021/12/31 13:55:18;;;;;;;1.60;1.50;;;17.20;45.80;;;;;;10344309;28;20238;-72
2021/12/31 14:00:25;;;;;;;1.80;1.70;;;17.20;45.60;;;;;;10349920;28;20709;-71
2021/12/31 14:05:29;;;;;;;1.63;1.53;;;17.20;46.10;;;;;;10350463;28;20230;-72
2021/12/31 14:10:34;;;;;;;1.60;1.50;;;17.20;46.30;;;;;;10346475;28;20230;-72
2021/12/31 14:15:39;;;;;;;2.33;2.17;;;17.30;46.30;;;;;;10351602;28;20225;-72
2021/12/31 14:20:45;;;;;;;1.87;1.77;;;17.20;46.20;;;;;;10349576;28;20254;-68
2021/12/31 14:25:48;;;;;;;2.30;2.10;;;17.20;46.10;;;;;;10356359;28;20226;-68
2021/12/31 14:30:51;;;;;;;2.30;2.10;;;17.20;46.30;;;;;;10356663;28;20633;-68
2021/12/31 14:35:56;;;;;;;2.63;2.43;;;17.10;46.20;;;;;;10355014;28;20253;-68
2021/12/31 14:41:02;;;;;;;3.10;2.73;;;17.10;46.20;;;;;;10355611;28;20564;-68
2021/12/31 14:46:06;;;;;;;3.23;3.03;;;17.10;46.20;;;;;;10354852;28;20214;-69
2021/12/31 14:51:10;;;;;;;3.83;3.53;;;17.00;46.10;;;;;;10352745;28;20257;-68
2021/12/31 14:56:13;;;;;;;2.90;2.70;;;17.00;46.10;;;;;;10357002;28;20234;-69
2021/12/31 15:01:17;;;;;;;3.53;2.67;;;17.00;46.10;;;;;;10350295;28;20320;-68
2021/12/31 15:06:23;;;;;;;4.60;4.07;;;16.90;46.00;;;;;;10347647;28;20245;-68
2021/12/31 15:11:26;;;;;;;3.50;3.20;;;16.90;46.00;;;;;;10355950;28;20226;-68
2021/12/31 15:16:29;;;;;;;3.60;3.30;;;16.80;45.90;;;;;;10351593;28;20229;-68
2021/12/31 15:21:36;;;;;;;4.50;3.90;;;16.70;45.80;;;;;;10354557;28;20233;-68
2021/12/31 15:26:42;;;;;;;4.67;4.27;;;16.60;45.40;;;;;;10350601;28;20230;-68
2021/12/31 15:31:45;;;;;;;5.73;4.40;;;16.50;45.60;;;;;;10346713;28;20230;-69
2021/12/31 15:36:51;;;;;;;4.03;3.73;;;16.40;45.60;;;;;;10348773;28;20237;-68
2021/12/31 15:41:54;;;;;;;4.03;3.07;;;16.30;45.50;;;;;;10353189;28;20620;-68
2021/12/31 15:46:57;;;;;;;3.00;2.80;;;16.20;45.50;;;;;;10348742;28;20230;-68
2021/12/31 15:52:04;;;;;;;5.03;4.63;;;16.20;45.50;;;;;;10353476;28;20301;-68
2021/12/31 15:57:07;;;;;;;6.20;5.60;;;16.10;45.30;;;;;;10353289;28;20238;-69
2021/12/31 16:02:12;;;;;;;3.97;3.67;;;16.10;45.30;;;;;;10349855;28;20599;-69
2021/12/31 16:07:17;;;;;;;3.30;3.00;;;16.00;45.40;;;;;;10351236;28;20633;-68
2021/12/31 16:12:20;;;;;;;3.23;2.93;;;16.00;45.30;;;;;;10350246;28;20727;-68
2021/12/31 16:17:43;;;;;;;2.60;2.40;;;15.90;45.80;;;;;;10348022;28;20237;-68
2021/12/31 16:22:47;;;;;;;2.83;2.40;;;15.80;45.60;;;;;;10352732;28;20769;-68
2021/12/31 16:27:50;;;;;;;2.23;2.10;;;15.80;45.40;;;;;;10348394;28;20253;-68
2021/12/31 16:32:53;;;;;;;2.43;2.33;;;15.70;45.40;;;;;;10346692;28;20585;-68
2021/12/31 16:37:58;;;;;;;5.83;5.27;;;15.80;45.30;;;;;;10349923;28;20242;-68
2021/12/31 16:43:02;;;;;;;6.70;6.10;;;15.70;45.00;;;;;;10347470;28;20237;-69
2021/12/31 16:48:06;;;;;;;6.17;5.67;;;15.60;44.90;;;;;;10345613;28;20231;-68
2021/12/31 16:53:10;;;;;;;5.27;4.77;;;15.60;44.90;;;;;;10348574;28;20616;-68
2021/12/31 16:58:14;;;;;;;5.70;5.20;;;15.50;44.80;;;;;;10350521;28;20230;-68
2021/12/31 17:03:17;;;;;;;7.40;6.70;;;15.40;44.70;;;;;;10352607;28;20222;-68
2021/12/31 17:08:22;;;;;;;6.20;5.70;;;15.20;44.50;;;;;;10349548;28;20289;-68
2021/12/31 17:13:25;;;;;;;7.47;6.77;;;15.10;44.40;;;;;;10352681;28;20222;-68
2021/12/31 17:18:31;;;;;;;6.37;5.80;;;15.00;44.30;;;;;;10350432;28;20234;-68
2021/12/31 17:23:35;;;;;;;8.27;7.17;;;14.80;44.20;;;;;;10350875;28;20230;-68
2021/12/31 17:28:38;;;;;;;6.73;6.13;;;14.70;44.10;;;;;;10348609;28;20321;-68
2021/12/31 17:33:42;;;;;;;7.07;6.47;;;14.50;43.90;;;;;;10350894;28;20234;-68
2021/12/31 17:38:46;;;;;;;5.77;5.37;;;14.40;43.80;;;;;;10349140;28;20234;-68
2021/12/31 17:43:49;;;;;;;8.10;7.30;;;14.20;43.60;;;;;;10348525;28;20236;-68
2021/12/31 17:48:52;;;;;;;5.70;5.20;;;14.00;44.00;;;;;;10351717;28;20241;-68
2021/12/31 17:53:57;;;;;;;5.47;4.97;;;13.80;44.20;;;;;;10347337;28;20777;-68
2021/12/31 17:59:00;;;;;;;5.47;4.97;;;13.80;44.10;;;;;;10357660;28;20226;-68
2021/12/31 18:04:04;;;;;;;8.03;7.33;;;13.60;44.30;;;;;;10360803;28;20226;-68
2021/12/31 18:09:08;;;;;;;7.23;6.63;;;13.60;44.40;;;;;;10356285;28;20300;-68
2021/12/31 18:14:12;;;;;;;8.17;7.20;;;13.50;44.20;;;;;;10358818;28;20586;-68
2021/12/31 18:19:15;;;;;;;10.07;9.07;;;13.50;44.10;;;;;;10357270;28;20598;-68
2021/12/31 18:24:20;;;;;;;9.27;8.47;;;13.40;44.00;;;;;;10356092;28;20225;-68
2021/12/31 18:29:23;;;;;;;6.27;5.67;;;13.30;43.90;;;;;;10349474;28;20235;-68
2021/12/31 18:34:26;;;;;;;5.27;4.77;;;13.20;43.70;;;;;;10351380;28;20589;-68
2021/12/31 18:39:31;;;;;;;4.90;4.50;;;13.10;43.60;;;;;;10354460;28;20230;-68
2021/12/31 18:44:36;;;;;;;4.37;4.03;;;12.90;43.50;;;;;;10352012;28;20223;-68
2021/12/31 18:49:42;;;;;;;4.23;3.83;;;12.80;43.60;;;;;;10350329;28;20230;-68
2021/12/31 18:54:47;;;;;;;5.00;4.50;;;12.70;43.70;;;;;;10351437;28;20526;-68
2021/12/31 18:59:50;;;;;;;3.97;3.67;;;12.60;44.20;;;;;;10352714;28;20226;-68
2021/12/31 19:04:53;;;;;;;2.60;2.40;;;12.50;44.70;;;;;;10350842;28;20256;-68
2021/12/31 19:09:58;;;;;;;2.63;2.40;;;12.50;45.80;;;;;;10348985;28;20735;-68
2021/12/31 19:15:01;;;;;;;2.90;2.60;;;12.50;46.50;;;;;;10356513;28;20238;-68
2021/12/31 19:20:05;;;;;;;2.50;2.30;;;12.60;46.80;;;;;;10351230;28;20229;-69
2021/12/31 19:25:10;;;;;;;2.90;2.70;;;12.70;46.90;;;;;;10354834;28;20249;-68
2021/12/31 19:30:13;;;;;;;3.43;3.13;;;12.90;47.00;;;;;;10353076;28;20673;-68
2021/12/31 19:35:16;;;;;;;4.30;3.97;;;13.00;46.80;;;;;;10351851;28;20223;-69
2021/12/31 19:40:21;;;;;;;2.40;2.20;;;13.10;46.70;;;;;;10348572;28;20610;-68
2021/12/31 19:45:28;;;;;;;2.03;1.80;;;13.20;46.70;;;;;;10347465;28;20238;-68
2021/12/31 19:50:32;;;;;;;2.70;2.50;;;13.30;46.80;;;;;;10351324;28;20223;-68
2021/12/31 19:55:38;;;;;;;2.50;2.27;;;13.30;46.90;;;;;;10353846;28;20222;-68
2021/12/31 20:00:41;;;;;;;2.33;2.13;;;13.30;47.00;;;;;;10350212;28;20228;-68
2021/12/31 20:05:45;;;;;;;5.03;2.23;;;13.40;47.10;;;;;;10349927;28;20226;-69
2021/12/31 20:10:49;;;;;;;2.20;2.00;;;13.40;47.00;;;;;;10351508;28;20218;-68
2021/12/31 20:15:52;;;;;;;2.60;2.10;;;13.50;47.00;;;;;;10348023;28;20820;-68
2021/12/31 20:20:58;;;;;;;2.27;2.00;;;13.50;47.00;;;;;;10346250;28;20230;-68
2021/12/31 20:26:03;;;;;;;1.83;1.73;;;13.50;47.00;;;;;;10355303;28;20222;-71
2021/12/31 20:31:06;;;;;;;2.23;2.03;;;13.40;46.80;;;;;;10351032;28;20578;-68
2021/12/31 20:36:10;;;;;;;2.43;2.20;;;13.60;46.90;;;;;;10345342;28;20249;-68
2021/12/31 20:41:14;;;;;;;2.83;2.50;;;13.60;46.80;;;;;;10351636;28;20577;-68
2021/12/31 20:46:17;;;;;;;2.10;1.90;;;13.60;46.60;;;;;;10351834;28;20231;-68
2021/12/31 20:51:21;;;;;;;2.40;2.20;;;13.60;46.70;;;;;;10347311;28;20296;-68
2021/12/31 20:56:25;;;;;;;2.33;2.13;;;13.60;46.70;;;;;;10352243;28;20234;-68
2021/12/31 21:01:28;;;;;;;2.50;2.30;;;13.60;46.60;;;;;;10350072;28;20230;-68
2021/12/31 21:06:32;;;;;;;3.20;2.50;;;13.70;46.60;;;;;;10352788;28;20379;-68
2021/12/31 21:11:36;;;;;;;2.30;2.10;;;13.70;46.50;;;;;;10353219;28;20226;-68
2021/12/31 21:16:40;;;;;;;2.47;2.23;;;13.70;46.40;;;;;;10346390;28;20610;-68
2021/12/31 21:21:43;;;;;;;2.33;2.13;;;13.70;46.40;;;;;;10351059;28;20245;-68
2021/12/31 21:26:47;;;;;;;2.27;2.13;;;13.70;46.30;;;;;;10348320;28;20785;-68
2021/12/31 21:31:50;;;;;;;2.63;2.30;;;13.70;46.10;;;;;;10353721;28;20234;-68
2021/12/31 21:36:56;;;;;;;2.80;2.60;;;13.70;46.20;;;;;;10361680;28;20233;-68
2021/12/31 21:42:00;;;;;;;2.43;2.27;;;13.70;46.10;;;;;;10358908;28;20230;-68
2021/12/31 21:47:05;;;;;;;2.63;2.43;;;13.70;46.00;;;;;;10357262;28;20615;-69
2021/12/31 21:52:10;;;;;;;2.57;2.37;;;13.70;46.10;;;;;;10357624;28;20233;-68
2021/12/31 21:57:14;;;;;;;8.43;5.63;;;13.70;46.10;;;;;;10353721;28;20322;-68
2021/12/31 22:02:22;;;;;;;3.40;3.10;;;13.70;46.00;;;;;;10354401;28;20269;-68
2021/12/31 22:07:31;;;;;;;2.43;2.27;;;13.60;46.10;;;;;;10354262;28;20226;-68
2021/12/31 22:12:35;;;;;;;2.47;2.30;;;13.60;45.80;;;;;;10358771;28;20575;-68
2021/12/31 22:17:38;;;;;;;2.60;2.40;;;13.70;45.70;;;;;;10356895;28;20234;-69
2021/12/31 22:22:41;;;;;;;2.17;2.07;;;13.70;45.80;;;;;;10354133;28;20228;-68
2021/12/31 22:27:46;;;;;;;2.47;2.27;;;13.70;45.60;;;;;;10350619;28;20789;-68
2021/12/31 22:32:49;;;;;;;2.97;2.60;;;13.70;45.30;;;;;;10352185;28;20235;-68
2021/12/31 22:37:52;;;;;;;2.60;2.33;;;13.70;45.30;;;;;;10348930;28;20239;-68
2021/12/31 22:42:57;;;;;;;3.00;2.33;;;13.70;45.30;;;;;;10350762;28;20226;-68
2021/12/31 22:48:00;;;;;;;3.73;3.10;;;13.70;45.00;;;;;;10357709;28;20228;-68
2021/12/31 22:53:04;;;;;;;5.40;4.70;;;13.70;45.10;;;;;;10353383;28;20218;-68
2021/12/31 22:58:09;;;;;;;8.07;7.27;;;13.70;45.00;;;;;;10354753;28;20229;-69
2021/12/31 23:03:12;;;;;;;6.63;6.03;;;13.70;44.80;;;;;;10349729;28;20226;-68
2021/12/31 23:08:15;;;;;;;24.60;22.10;;;13.70;44.90;;;;;;10353403;28;20229;-68
2021/12/31 23:13:21;;;;;;;39.87;33.77;;;13.60;44.80;;;;;;10353090;28;20230;-68
2021/12/31 23:18:24;;;;;;;9.13;8.23;;;13.60;44.70;;;;;;10352408;28;20238;-68
2021/12/31 23:23:28;;;;;;;6.80;6.17;;;13.60;44.80;;;;;;10351329;28;20226;-68
2021/12/31 23:28:33;;;;;;;5.33;4.80;;;13.60;44.70;;;;;;10354294;28;20262;-68
2021/12/31 23:33:37;;;;;;;5.40;4.90;;;13.50;44.50;;;;;;10353678;28;20738;-68
2021/12/31 23:38:40;;;;;;;4.93;4.53;;;13.50;44.70;;;;;;10348477;28;20749;-68
2021/12/31 23:43:47;;;;;;;5.40;4.90;;;13.50;44.70;;;;;;10351310;28;20232;-68
2021/12/31 23:48:50;;;;;;;4.60;4.20;;;13.40;44.60;;;;;;10353329;28;20230;-69
2021/12/31 23:53:53;;;;;;;5.00;4.60;;;13.40;45.00;;;;;;10344454;28;20237;-68
2021/12/31 23:58:57;;;;;;;4.77;4.37;;;13.30;45.10;;;;;;10356742;28;20606;-68
